Time;durP1;ratioP1;P1;durP2;ratioP2;P2;SDS_P1;SDS_P2;PMS_P1;PMS_P2;Temp;Humidity;BMP_temperature;BMP_pressure;BME280_temperature;BME280_humidity;BME280_pressure;Samples;Min_cycle;Max_cycle;Signal;HPM_P1;HPM_P2
2022/01/11 00:00:36;;;;;;;53.25;19.65;;;2.40;99.90;;;;;;5126397;27;20438;-73
2022/01/11 00:03:04;;;;;;;105.90;29.60;;;3.10;99.90;;;;;;5113572;27;20133;-73
2022/01/11 00:05:38;;;;;;;77.22;24.42;;;2.30;99.90;;;;;;5113396;27;20094;-73
2022/01/11 00:08:07;;;;;;;124.15;31.95;;;2.70;99.90;;;;;;5131801;27;20098;-74
2022/01/11 00:10:45;;;;;;;181.10;37.83;;;2.90;99.90;;;;;;5113143;27;20078;-73
2022/01/11 00:13:11;;;;;;;69.68;23.27;;;2.70;99.90;;;;;;5108831;27;20407;-73
2022/01/11 00:15:37;;;;;;;91.68;24.15;;;2.20;99.90;;;;;;5110448;27;20074;-73
2022/01/11 00:18:03;;;;;;;62.80;23.85;;;2.10;99.90;;;;;;5115093;27;20089;-73
2022/01/11 00:20:29;;;;;;;115.80;28.50;;;3.30;99.90;;;;;;5130359;27;20419;-73
2022/01/11 00:25:32;;;;;;;51.70;21.38;;;2.10;99.90;;;;;;5129185;27;20043;-74
2022/01/11 00:27:58;;;;;;;66.97;23.23;;;3.20;99.90;;;;;;5101356;27;20549;-73
2022/01/11 00:30:30;;;;;;;68.97;27.10;;;2.10;99.90;;;;;;5111120;27;20042;-73
2022/01/11 00:32:58;;;;;;;60.25;23.55;;;3.20;99.90;;;;;;5127534;27;20081;-74
2022/01/11 00:35:28;;;;;;;75.57;24.60;;;2.70;99.90;;;;;;5108990;27;20078;-74
2022/01/11 00:37:55;;;;;;;74.38;25.90;;;3.00;99.90;;;;;;5130299;27;20046;-74
2022/01/11 00:40:21;;;;;;;55.83;23.45;;;2.40;99.90;;;;;;5129286;27;20050;-74
2022/01/11 00:42:47;;;;;;;91.20;28.77;;;2.80;99.90;;;;;;5131203;27;20088;-74
2022/01/11 00:45:13;;;;;;;91.72;31.15;;;3.10;99.90;;;;;;5109906;27;20030;-74
2022/01/11 00:47:40;;;;;;;82.57;28.92;;;2.00;99.90;;;;;;5129317;27;20118;-74
2022/01/11 00:50:08;;;;;;;35.00;18.58;;;2.20;99.90;;;;;;5131286;27;20041;-73
2022/01/11 00:52:34;;;;;;;41.22;18.88;;;2.00;99.90;;;;;;5110478;28;20072;-74
2022/01/11 00:54:59;;;;;;;47.80;21.25;;;3.00;99.90;;;;;;5118068;27;20050;-74
2022/01/11 00:57:26;;;;;;;34.42;19.67;;;2.00;99.90;;;;;;5125311;27;20073;-73
2022/01/11 00:59:52;;;;;;;35.08;17.92;;;2.30;99.90;;;;;;5110761;27;20095;-74
2022/01/11 01:02:18;;;;;;;54.05;26.65;;;1.80;99.90;;;;;;5113430;27;20070;-74
2022/01/11 01:04:44;;;;;;;62.75;28.15;;;2.90;99.90;;;;;;5129970;27;20439;-74
2022/01/11 01:07:10;;;;;;;45.72;24.25;;;2.50;99.90;;;;;;5089434;27;20031;-74
2022/01/11 01:09:57;;;;;;;53.95;27.58;;;1.80;99.90;;;;;;5111607;27;20031;-73
2022/01/11 01:12:21;;;;;;;45.58;23.13;;;2.80;99.90;;;;;;5103909;27;20081;-73
2022/01/11 01:14:47;;;;;;;35.35;20.73;;;1.70;99.90;;;;;;5123181;27;21563;-73
2022/01/11 01:17:12;;;;;;;53.30;24.75;;;1.70;99.90;;;;;;5127717;27;20062;-73
2022/01/11 01:19:38;;;;;;;44.78;23.60;;;3.10;99.90;;;;;;5122948;27;20046;-73
2022/01/11 01:22:04;;;;;;;47.75;23.65;;;3.10;99.90;;;;;;5110663;27;21036;-73
2022/01/11 01:24:30;;;;;;;39.15;20.90;;;3.10;99.90;;;;;;5129964;27;20039;-73
2022/01/11 01:26:56;;;;;;;26.30;16.20;;;3.20;99.90;;;;;;5110509;27;20041;-73
2022/01/11 01:29:22;;;;;;;45.72;24.63;;;3.00;99.90;;;;;;5110970;27;20035;-73
2022/01/11 01:31:47;;;;;;;52.38;25.35;;;1.90;99.90;;;;;;5113385;27;20038;-73
2022/01/11 01:34:15;;;;;;;42.20;22.77;;;1.70;99.90;;;;;;5131522;27;20125;-73
2022/01/11 01:36:41;;;;;;;45.90;23.17;;;2.50;99.90;;;;;;5110315;27;20035;-72
2022/01/11 01:39:07;;;;;;;35.88;20.48;;;3.00;99.90;;;;;;5096702;27;20485;-72
2022/01/11 01:41:33;;;;;;;41.83;21.20;;;3.20;99.90;;;;;;5113172;27;20067;-76
2022/01/11 01:44:03;;;;;;;38.28;20.27;;;1.70;99.90;;;;;;5132958;27;20543;-73
2022/01/11 01:46:29;;;;;;;53.13;20.17;;;2.40;99.90;;;;;;5114416;27;20039;-73
2022/01/11 01:48:58;;;;;;;79.70;24.27;;;3.20;99.90;;;;;;5116265;27;20494;-73
2022/01/11 01:51:24;;;;;;;60.05;24.92;;;2.90;99.90;;;;;;5093487;27;20042;-74
2022/01/11 01:53:50;;;;;;;61.53;23.13;;;2.20;99.90;;;;;;5130019;27;20046;-74
2022/01/11 01:56:18;;;;;;;51.92;22.27;;;3.20;99.90;;;;;;5130648;27;20062;-74
2022/01/11 01:58:44;;;;;;;56.35;22.33;;;2.10;99.90;;;;;;5128157;27;20146;-74
2022/01/11 02:01:12;;;;;;;70.47;25.10;;;3.10;99.90;;;;;;5093384;27;20455;-73
2022/01/11 02:03:40;;;;;;;80.88;25.75;;;1.70;99.90;;;;;;5126794;27;20126;-74
2022/01/11 02:06:09;;;;;;;98.05;29.63;;;2.90;99.90;;;;;;5131619;27;20049;-74
2022/01/11 02:08:36;;;;;;;57.15;20.63;;;3.80;99.90;;;;;;5134197;27;20039;-74
2022/01/11 02:11:03;;;;;;;86.10;26.48;;;3.30;99.90;;;;;;5130525;27;21574;-74
2022/01/11 02:13:29;;;;;;;64.90;24.83;;;2.40;99.90;;;;;;5129600;27;20073;-74
2022/01/11 02:15:56;;;;;;;82.10;25.73;;;2.10;99.90;;;;;;5116339;27;20505;-74
2022/01/11 02:18:25;;;;;;;81.45;25.17;;;2.40;99.90;;;;;;5117047;27;21758;-74
2022/01/11 02:20:52;;;;;;;99.63;24.50;;;3.10;99.90;;;;;;5113178;27;20129;-73
2022/01/11 02:23:19;;;;;;;53.70;18.95;;;2.00;99.90;;;;;;5132251;27;20192;-73
2022/01/11 02:25:46;;;;;;;71.45;22.58;;;3.20;99.90;;;;;;5133358;27;20030;-74
2022/01/11 02:28:15;;;;;;;45.58;18.10;;;2.50;99.90;;;;;;5134684;27;20042;-74
2022/01/11 02:30:41;;;;;;;40.55;17.83;;;2.90;99.90;;;;;;5113608;27;20042;-73
2022/01/11 02:33:16;;;;;;;45.67;19.98;;;1.80;99.90;;;;;;5130650;27;20038;-73
2022/01/11 02:35:51;;;;;;;37.92;18.92;;;2.30;99.90;;;;;;5131173;27;20053;-74
2022/01/11 02:38:17;;;;;;;48.80;17.13;;;2.30;99.90;;;;;;5106011;27;20039;-74
2022/01/11 02:40:43;;;;;;;30.23;14.70;;;1.60;99.90;;;;;;5114405;27;20038;-73
2022/01/11 02:43:10;;;;;;;33.58;14.55;;;1.90;99.90;;;;;;5112926;27;20558;-74
2022/01/11 02:45:36;;;;;;;44.88;20.48;;;3.00;99.90;;;;;;5130901;27;20042;-74
2022/01/11 02:48:01;;;;;;;38.60;17.80;;;2.00;99.90;;;;;;5126982;27;20038;-74
2022/01/11 02:50:27;;;;;;;52.25;20.02;;;3.00;99.90;;;;;;5111102;27;20067;-74
2022/01/11 02:52:53;;;;;;;27.15;15.13;;;1.60;99.90;;;;;;5135518;27;20391;-74
2022/01/11 02:55:20;;;;;;;39.83;17.65;;;2.40;99.90;;;;;;5099686;27;20044;-74
2022/01/11 02:57:46;;;;;;;66.75;22.02;;;2.10;99.90;;;;;;5133103;27;20066;-74
2022/01/11 03:00:15;;;;;;;40.38;18.73;;;4.20;99.90;;;;;;5131295;27;20058;-74
2022/01/11 03:02:40;;;;;;;31.83;16.70;;;2.80;99.90;;;;;;5128168;27;20030;-74
2022/01/11 03:05:08;;;;;;;47.15;17.58;;;2.40;99.90;;;;;;5112272;27;20418;-73
2022/01/11 03:07:34;;;;;;;49.95;19.63;;;2.00;99.90;;;;;;5131981;27;20520;-74
2022/01/11 03:10:04;;;;;;;29.73;16.25;;;2.00;99.90;;;;;;5131816;27;20031;-73
2022/01/11 03:12:31;;;;;;;71.18;24.52;;;2.20;99.90;;;;;;5097373;27;20079;-74
2022/01/11 03:14:57;;;;;;;41.38;18.63;;;2.80;99.90;;;;;;5120800;27;20212;-74
2022/01/11 03:17:22;;;;;;;46.42;19.42;;;2.90;99.90;;;;;;5121984;27;20125;-74
2022/01/11 03:19:48;;;;;;;62.40;23.10;;;2.70;99.90;;;;;;5107754;27;20035;-74
2022/01/11 03:22:14;;;;;;;71.63;25.50;;;2.00;99.90;;;;;;5094422;27;20083;-71
2022/01/11 03:24:40;;;;;;;40.50;18.38;;;2.90;99.90;;;;;;5115496;27;20087;-73
2022/01/11 03:27:07;;;;;;;58.13;21.60;;;3.20;99.90;;;;;;5111218;27;20119;-73
2022/01/11 03:29:34;;;;;;;59.08;22.13;;;2.90;99.90;;;;;;5122688;27;20123;-74
2022/01/11 03:32:00;;;;;;;49.15;22.52;;;2.90;99.90;;;;;;5122852;27;20410;-74
2022/01/11 03:34:25;;;;;;;51.65;22.90;;;2.90;99.90;;;;;;5131862;27;20051;-73
2022/01/11 03:36:51;;;;;;;56.67;23.35;;;3.10;99.90;;;;;;5115513;27;20043;-73
2022/01/11 03:39:17;;;;;;;70.15;25.15;;;2.80;99.90;;;;;;5094587;27;20092;-73
2022/01/11 03:41:43;;;;;;;68.68;24.08;;;2.10;99.90;;;;;;5115817;27;20133;-74
2022/01/11 03:44:09;;;;;;;90.32;28.85;;;3.30;99.90;;;;;;5079940;27;20080;-74
2022/01/11 03:46:34;;;;;;;57.83;22.45;;;3.30;99.90;;;;;;5115331;27;20094;-74
2022/01/11 03:49:00;;;;;;;63.15;24.80;;;3.10;99.90;;;;;;5111934;27;20035;-74
2022/01/11 03:51:26;;;;;;;49.90;22.17;;;3.30;99.90;;;;;;5096691;27;20035;-74
2022/01/11 03:54:08;;;;;;;80.75;26.52;;;2.10;99.90;;;;;;5097336;27;20074;-74
2022/01/11 03:56:34;;;;;;;56.50;22.25;;;3.40;99.90;;;;;;5112869;27;20054;-74
2022/01/11 03:59:06;;;;;;;73.15;26.35;;;1.90;99.90;;;;;;5128118;27;20065;-74
2022/01/11 04:01:32;;;;;;;50.42;22.52;;;3.40;99.90;;;;;;5112217;27;20050;-74
2022/01/11 04:03:58;;;;;;;46.95;22.20;;;2.00;99.90;;;;;;5096441;27;20546;-73
2022/01/11 04:06:25;;;;;;;60.55;23.00;;;1.90;99.90;;;;;;5076233;27;20176;-73
2022/01/11 04:08:52;;;;;;;58.47;23.60;;;3.40;99.90;;;;;;5123464;27;20050;-73
2022/01/11 04:11:18;;;;;;;50.85;20.38;;;3.60;99.90;;;;;;5075878;27;20049;-73
2022/01/11 04:13:44;;;;;;;51.55;20.98;;;1.80;99.90;;;;;;5084164;27;20042;-75
2022/01/11 04:16:10;;;;;;;59.53;21.13;;;3.60;99.90;;;;;;5096284;27;20038;-75
2022/01/11 04:18:36;;;;;;;36.10;17.92;;;2.30;99.90;;;;;;5125405;27;20054;-74
2022/01/11 04:21:03;;;;;;;54.50;21.17;;;2.70;99.90;;;;;;5112031;27;20493;-74
2022/01/11 04:23:29;;;;;;;53.95;23.45;;;3.30;99.90;;;;;;5109474;27;20046;-74
2022/01/11 04:25:55;;;;;;;61.72;22.98;;;1.80;99.90;;;;;;5104842;27;20120;-74
2022/01/11 04:28:23;;;;;;;68.97;25.83;;;3.10;99.90;;;;;;5123133;27;20075;-74
2022/01/11 04:30:50;;;;;;;40.97;18.65;;;3.80;99.90;;;;;;5129743;27;20053;-74
2022/01/11 04:33:16;;;;;;;50.10;22.88;;;3.30;99.90;;;;;;5110708;27;20138;-74
2022/01/11 04:35:44;;;;;;;58.63;23.23;;;3.20;99.90;;;;;;5111968;27;20045;-74
2022/01/11 04:38:10;;;;;;;81.75;26.88;;;1.90;99.90;;;;;;5130368;27;20043;-74
2022/01/11 04:40:36;;;;;;;47.80;21.70;;;2.50;99.90;;;;;;5129236;27;20031;-74
2022/01/11 04:43:02;;;;;;;61.60;25.70;;;3.40;99.90;;;;;;5111839;27;20084;-74
2022/01/11 04:45:28;;;;;;;40.83;21.63;;;3.10;99.90;;;;;;5093229;28;20760;-73
2022/01/11 04:47:56;;;;;;;66.25;26.25;;;3.00;99.90;;;;;;5111852;28;20035;-74
2022/01/11 04:50:24;;;;;;;49.72;24.05;;;2.70;99.90;;;;;;5127765;27;20042;-73
2022/01/11 04:52:50;;;;;;;66.10;26.48;;;2.20;99.90;;;;;;5111570;27;20043;-73
2022/01/11 04:55:16;;;;;;;42.40;21.15;;;2.70;99.90;;;;;;5095754;27;20145;-74
2022/01/11 04:57:43;;;;;;;42.58;20.40;;;2.90;99.90;;;;;;5112670;27;20114;-73
2022/01/11 05:00:09;;;;;;;44.88;20.35;;;2.40;99.90;;;;;;5113210;27;20061;-73
2022/01/11 05:02:35;;;;;;;52.10;23.42;;;2.50;99.90;;;;;;5125486;27;20039;-73
2022/01/11 05:05:01;;;;;;;52.92;23.30;;;3.50;99.90;;;;;;5136147;27;20499;-73
2022/01/11 05:07:26;;;;;;;67.45;27.50;;;2.40;99.90;;;;;;5113220;27;20585;-73
2022/01/11 05:09:53;;;;;;;51.40;24.38;;;3.30;99.90;;;;;;5112934;27;20043;-73
2022/01/11 05:12:19;;;;;;;36.67;17.98;;;3.60;99.90;;;;;;5117658;27;20047;-73
2022/01/11 05:14:45;;;;;;;55.83;26.13;;;2.90;99.90;;;;;;5111123;27;21181;-74
2022/01/11 05:17:11;;;;;;;38.60;19.92;;;2.00;99.90;;;;;;5115861;27;20035;-73
2022/01/11 05:19:36;;;;;;;39.47;18.50;;;3.00;99.90;;;;;;5130231;27;20038;-73
2022/01/11 05:22:02;;;;;;;47.03;20.98;;;3.60;99.90;;;;;;5118024;27;20066;-73
2022/01/11 05:24:28;;;;;;;32.60;16.30;;;2.40;99.90;;;;;;5134043;27;20047;-73
2022/01/11 05:26:56;;;;;;;40.00;21.80;;;2.00;99.90;;;;;;5134153;27;20038;-72
2022/01/11 05:29:22;;;;;;;48.47;23.55;;;3.60;99.90;;;;;;5118059;27;20038;-73
2022/01/11 05:31:47;;;;;;;37.08;18.23;;;3.30;99.90;;;;;;5118168;27;20466;-73
2022/01/11 05:34:13;;;;;;;35.35;17.17;;;3.60;99.90;;;;;;5090793;27;20402;-74
2022/01/11 05:36:39;;;;;;;44.03;21.15;;;2.10;99.90;;;;;;5132697;27;20039;-74
2022/01/11 05:39:04;;;;;;;48.38;21.02;;;4.20;99.90;;;;;;5131325;27;20035;-74
2022/01/11 05:41:31;;;;;;;40.53;19.55;;;3.60;99.90;;;;;;5133774;27;20042;-73
2022/01/11 05:43:57;;;;;;;37.42;19.35;;;3.60;99.90;;;;;;5132562;27;20095;-73
2022/01/11 05:46:23;;;;;;;39.75;18.92;;;2.20;99.90;;;;;;5097111;27;20437;-74
2022/01/11 05:48:49;;;;;;;41.95;22.02;;;2.80;99.90;;;;;;5086426;27;20035;-74
2022/01/11 05:51:15;;;;;;;45.97;20.83;;;3.60;99.90;;;;;;5134262;27;20041;-77
2022/01/11 05:53:42;;;;;;;38.95;20.25;;;1.90;99.90;;;;;;5135423;27;20451;-73
2022/01/11 05:56:07;;;;;;;41.88;20.77;;;3.10;99.90;;;;;;5118909;27;20466;-73
2022/01/11 05:58:33;;;;;;;37.00;19.10;;;3.50;99.90;;;;;;5133936;27;20158;-73
2022/01/11 06:00:59;;;;;;;51.15;22.13;;;3.60;99.90;;;;;;5132176;27;20055;-73
2022/01/11 06:03:25;;;;;;;54.65;23.05;;;3.40;99.90;;;;;;5128538;27;20050;-73
2022/01/11 06:05:51;;;;;;;54.42;24.30;;;2.60;99.90;;;;;;5115848;27;20039;-73
2022/01/11 06:08:17;;;;;;;57.30;24.42;;;3.20;99.90;;;;;;5132839;27;20070;-73
2022/01/11 06:10:46;;;;;;;44.28;19.55;;;3.40;99.90;;;;;;5130627;27;20051;-74
2022/01/11 06:13:12;;;;;;;39.45;19.95;;;2.00;99.90;;;;;;5112156;27;20337;-73
2022/01/11 06:15:38;;;;;;;41.78;19.65;;;2.10;99.90;;;;;;5125399;27;20043;-73
2022/01/11 06:18:05;;;;;;;54.00;21.85;;;2.50;99.90;;;;;;5128450;27;20557;-73
2022/01/11 06:20:34;;;;;;;70.43;28.33;;;2.20;99.90;;;;;;5131564;27;20138;-74
2022/01/11 06:23:00;;;;;;;76.00;28.80;;;3.40;99.90;;;;;;5097639;27;20356;-73
2022/01/11 06:25:26;;;;;;;67.07;26.08;;;3.60;99.90;;;;;;5134224;27;20071;-74
2022/01/11 06:27:51;;;;;;;57.78;25.92;;;3.40;99.90;;;;;;5131853;27;20122;-73
2022/01/11 06:30:18;;;;;;;55.85;24.00;;;3.60;99.90;;;;;;5114910;27;20050;-73
2022/01/11 06:32:45;;;;;;;48.63;20.15;;;3.60;99.90;;;;;;5132428;27;20042;-73
2022/01/11 06:35:14;;;;;;;37.13;17.75;;;2.70;99.90;;;;;;5115774;27;20038;-73
2022/01/11 06:37:39;;;;;;;52.60;23.13;;;2.80;99.90;;;;;;5110099;27;20157;-73
2022/01/11 06:40:07;;;;;;;49.03;20.30;;;3.50;99.90;;;;;;5122581;27;20121;-74
2022/01/11 06:42:33;;;;;;;57.35;25.15;;;2.10;99.90;;;;;;5130942;27;20076;-74
2022/01/11 06:44:58;;;;;;;35.85;17.48;;;2.20;99.90;;;;;;5114818;27;20039;-73
2022/01/11 06:47:24;;;;;;;53.80;23.00;;;4.20;99.90;;;;;;5114848;27;20123;-72
2022/01/11 06:49:50;;;;;;;45.67;22.70;;;2.30;99.90;;;;;;5099132;27;20948;-73
2022/01/11 06:52:16;;;;;;;41.08;19.20;;;3.70;99.90;;;;;;5092492;27;20049;-73
2022/01/11 06:54:42;;;;;;;54.53;21.98;;;3.40;99.90;;;;;;5122759;27;20047;-74
2022/01/11 06:57:08;;;;;;;41.00;19.40;;;2.90;99.90;;;;;;5094717;27;20494;-74
2022/01/11 06:59:37;;;;;;;48.90;22.95;;;2.10;99.90;;;;;;5115654;27;20125;-74
2022/01/11 07:02:06;;;;;;;48.95;23.63;;;2.60;99.90;;;;;;5114259;27;20050;-74
2022/01/11 07:04:33;;;;;;;41.30;19.23;;;2.70;99.90;;;;;;5133241;27;20039;-74
2022/01/11 07:06:59;;;;;;;53.70;23.40;;;3.40;99.90;;;;;;5131191;27;20039;-74
2022/01/11 07:09:25;;;;;;;55.30;25.08;;;2.10;99.90;;;;;;5133435;27;20046;-74
2022/01/11 07:11:51;;;;;;;45.90;22.35;;;3.30;99.90;;;;;;5133287;27;20545;-74
2022/01/11 07:14:17;;;;;;;42.17;19.27;;;3.50;99.90;;;;;;5110891;27;20050;-73
2022/01/11 07:16:48;;;;;;;46.05;21.92;;;3.70;99.90;;;;;;5118753;27;20030;-73
2022/01/11 07:19:15;;;;;;;51.10;22.77;;;3.00;99.90;;;;;;5136060;27;20376;-74
2022/01/11 07:21:41;;;;;;;43.08;21.20;;;2.40;99.90;;;;;;5136033;27;20070;-74
2022/01/11 07:24:06;;;;;;;47.28;21.13;;;2.10;99.90;;;;;;5118390;27;21333;-74
2022/01/11 07:26:34;;;;;;;52.92;23.17;;;3.10;99.90;;;;;;5135814;27;20035;-73
2022/01/11 07:28:59;;;;;;;60.38;25.23;;;2.90;99.90;;;;;;5135293;27;20031;-73
2022/01/11 07:31:25;;;;;;;70.78;28.95;;;3.50;99.90;;;;;;5135592;27;20035;-73
2022/01/11 07:33:51;;;;;;;50.35;23.05;;;2.20;99.90;;;;;;5134157;27;20035;-72
2022/01/11 07:36:17;;;;;;;50.28;23.02;;;3.70;99.90;;;;;;5117481;27;20395;-72
2022/01/11 07:38:42;;;;;;;66.18;28.02;;;2.30;99.90;;;;;;5135323;27;20092;-73
2022/01/11 07:41:08;;;;;;;55.40;27.35;;;3.60;99.90;;;;;;5111715;27;20634;-72
2022/01/11 07:43:34;;;;;;;77.60;30.58;;;2.20;99.90;;;;;;5079444;27;20039;-74
2022/01/11 07:45:59;;;;;;;55.78;24.95;;;3.60;99.90;;;;;;5105344;27;20057;-74
2022/01/11 07:48:25;;;;;;;80.63;30.63;;;3.80;99.90;;;;;;5112497;27;20070;-74
2022/01/11 07:50:51;;;;;;;72.38;30.60;;;4.10;99.90;;;;;;5120748;27;20031;-74
2022/01/11 07:53:16;;;;;;;52.97;23.95;;;2.70;99.90;;;;;;5132938;27;20068;-73
2022/01/11 07:55:42;;;;;;;61.25;27.88;;;3.70;99.90;;;;;;5133510;27;20077;-73
2022/01/11 07:58:08;;;;;;;64.20;28.40;;;2.30;99.90;;;;;;5099249;27;20103;-74
2022/01/11 08:00:33;;;;;;;54.15;22.92;;;3.50;99.90;;;;;;5133366;27;20042;-74
2022/01/11 08:02:59;;;;;;;75.40;28.73;;;3.50;99.90;;;;;;5116061;27;20380;-73
2022/01/11 08:05:25;;;;;;;63.42;27.92;;;3.70;99.90;;;;;;5114846;27;20099;-74
2022/01/11 08:07:51;;;;;;;54.22;26.25;;;2.40;99.90;;;;;;5127826;27;20376;-73
2022/01/11 08:10:18;;;;;;;63.72;28.70;;;2.40;99.90;;;;;;5114168;27;20066;-73
2022/01/11 08:12:45;;;;;;;77.97;31.23;;;3.50;99.90;;;;;;5131217;27;20045;-74
2022/01/11 08:15:12;;;;;;;85.57;34.35;;;2.40;99.90;;;;;;5112697;27;20031;-73
2022/01/11 08:17:38;;;;;;;58.50;24.40;;;2.50;99.90;;;;;;5132960;27;20054;-73
2022/01/11 08:20:05;;;;;;;81.45;32.08;;;2.60;99.90;;;;;;5116029;27;20042;-73
2022/01/11 08:22:31;;;;;;;62.25;25.63;;;3.30;99.90;;;;;;5131921;27;20045;-74
2022/01/11 08:24:56;;;;;;;82.07;32.67;;;4.60;99.90;;;;;;5099014;27;20046;-73
2022/01/11 08:27:22;;;;;;;71.80;30.00;;;3.00;99.90;;;;;;5115513;27;20121;-73
2022/01/11 08:29:50;;;;;;;84.45;33.03;;;2.50;99.90;;;;;;5132271;27;20046;-75
2022/01/11 08:32:16;;;;;;;61.40;25.80;;;4.20;99.90;;;;;;5114501;27;20047;-73
2022/01/11 08:34:42;;;;;;;48.83;20.80;;;3.90;99.90;;;;;;5112515;27;20035;-71
2022/01/11 08:37:08;;;;;;;67.63;26.52;;;3.60;99.90;;;;;;5131199;27;20402;-70
2022/01/11 08:39:35;;;;;;;66.93;28.63;;;2.70;99.90;;;;;;5114016;27;20042;-72
2022/01/11 08:42:01;;;;;;;69.30;29.75;;;4.00;99.90;;;;;;5112566;27;20162;-71
2022/01/11 08:44:27;;;;;;;70.43;29.23;;;4.00;99.90;;;;;;5115428;27;20084;-72
2022/01/11 08:46:54;;;;;;;53.95;24.25;;;3.90;99.90;;;;;;5119400;27;20038;-73
2022/01/11 08:49:21;;;;;;;61.03;28.73;;;3.40;99.90;;;;;;5135812;27;20049;-73
2022/01/11 08:51:47;;;;;;;48.75;21.70;;;4.00;99.90;;;;;;5117348;27;20033;-72
2022/01/11 08:54:15;;;;;;;45.80;24.30;;;3.90;99.90;;;;;;5136132;27;20359;-73
2022/01/11 08:56:41;;;;;;;52.05;24.40;;;2.70;99.90;;;;;;5119740;27;20040;-72
2022/01/11 08:59:07;;;;;;;43.95;19.95;;;2.80;99.90;;;;;;5119512;27;20396;-72
2022/01/11 09:01:34;;;;;;;54.92;24.00;;;4.00;99.90;;;;;;5119832;27;20034;-74
2022/01/11 09:04:01;;;;;;;57.75;24.98;;;3.90;99.90;;;;;;5119389;27;20056;-74
2022/01/11 09:06:27;;;;;;;63.75;28.67;;;3.00;99.90;;;;;;5136239;27;20114;-73
2022/01/11 09:08:52;;;;;;;47.75;23.92;;;4.00;99.90;;;;;;5136975;27;20118;-72
2022/01/11 09:11:18;;;;;;;54.47;25.10;;;4.00;99.90;;;;;;5119053;27;20084;-71
2022/01/11 09:13:45;;;;;;;51.95;23.92;;;3.90;99.90;;;;;;5119608;27;20042;-73
2022/01/11 09:16:11;;;;;;;45.05;21.63;;;3.20;99.90;;;;;;5136883;27;20046;-73
2022/01/11 09:18:40;;;;;;;42.63;20.00;;;3.10;99.90;;;;;;5104780;27;20087;-74
2022/01/11 09:21:06;;;;;;;51.33;22.42;;;3.90;99.90;;;;;;5136200;27;20436;-73
2022/01/11 09:23:32;;;;;;;47.20;21.08;;;2.80;99.90;;;;;;5115247;27;20043;-73
2022/01/11 09:25:58;;;;;;;44.13;21.80;;;2.90;99.90;;;;;;5098535;27;20072;-73
2022/01/11 09:28:24;;;;;;;41.83;19.63;;;2.90;99.90;;;;;;5115724;27;20036;-73
2022/01/11 09:30:50;;;;;;;45.80;23.33;;;3.40;99.90;;;;;;5115627;27;20042;-70
2022/01/11 09:33:16;;;;;;;48.45;22.70;;;3.80;99.90;;;;;;5115417;27;20750;-74
2022/01/11 09:35:43;;;;;;;45.90;21.27;;;4.00;99.90;;;;;;5115643;27;20058;-73
2022/01/11 09:38:08;;;;;;;42.97;20.20;;;2.80;99.90;;;;;;5098491;27;20516;-72
2022/01/11 09:40:34;;;;;;;43.90;21.50;;;3.00;99.90;;;;;;5081642;27;20066;-72
2022/01/11 09:43:00;;;;;;;49.22;22.88;;;3.60;99.90;;;;;;5097728;27;20093;-74
2022/01/11 09:45:26;;;;;;;38.17;20.00;;;3.80;99.90;;;;;;5115440;27;20542;-74
2022/01/11 09:47:52;;;;;;;42.60;21.75;;;3.70;99.90;;;;;;5098468;27;20097;-71
2022/01/11 09:50:19;;;;;;;39.53;20.42;;;2.70;99.90;;;;;;5114932;27;20519;-73
2022/01/11 09:52:45;;;;;;;35.25;20.02;;;3.80;99.90;;;;;;5115253;27;20046;-73
2022/01/11 09:55:13;;;;;;;39.10;18.45;;;3.40;99.90;;;;;;5114670;27;20039;-73
2022/01/11 09:57:40;;;;;;;35.65;17.92;;;3.30;99.90;;;;;;5115000;27;20133;-74
2022/01/11 10:00:09;;;;;;;32.75;17.33;;;2.80;99.90;;;;;;5114718;27;20512;-74
2022/01/11 10:02:36;;;;;;;35.50;18.90;;;4.00;99.90;;;;;;5115242;27;20066;-74
2022/01/11 10:05:06;;;;;;;40.45;20.75;;;2.90;99.90;;;;;;5097741;27;20547;-74
2022/01/11 10:07:34;;;;;;;38.42;16.33;;;3.30;99.90;;;;;;5114975;27;20109;-72
2022/01/11 10:10:00;;;;;;;29.50;15.52;;;2.90;99.90;;;;;;5097604;27;20660;-73
2022/01/11 10:12:29;;;;;;;35.75;17.95;;;3.90;99.90;;;;;;5098379;27;20127;-74
2022/01/11 10:14:58;;;;;;;33.10;16.45;;;3.50;99.90;;;;;;5081707;27;20039;-71
2022/01/11 10:17:37;;;;;;;24.60;12.35;;;4.10;99.90;;;;;;5097720;27;20035;-71
2022/01/11 10:20:03;;;;;;;31.20;16.58;;;3.80;99.90;;;;;;5097463;27;20423;-73
2022/01/11 10:22:30;;;;;;;30.08;15.05;;;3.20;99.90;;;;;;5114577;27;20051;-71
2022/01/11 10:24:57;;;;;;;29.02;15.80;;;2.90;99.90;;;;;;5115323;27;20124;-73
2022/01/11 10:27:31;;;;;;;29.40;15.00;;;2.90;99.90;;;;;;5096945;27;20179;-71
2022/01/11 10:30:05;;;;;;;27.17;14.70;;;3.40;99.90;;;;;;5114410;27;20513;-72
2022/01/11 10:32:32;;;;;;;29.00;15.48;;;3.50;99.90;;;;;;5097662;27;20038;-71
2022/01/11 10:35:06;;;;;;;22.65;11.30;;;2.80;99.90;;;;;;5128991;27;20413;-71
2022/01/11 10:37:34;;;;;;;26.88;14.85;;;3.20;99.90;;;;;;5113791;27;20126;-72
2022/01/11 10:40:22;;;;;;;26.13;15.00;;;3.30;99.90;;;;;;5108641;27;20035;-73
2022/01/11 10:43:15;;;;;;;28.65;14.20;;;3.90;99.90;;;;;;5108048;27;20130;-72
2022/01/11 10:45:45;;;;;;;27.00;14.35;;;3.80;99.90;;;;;;5108103;27;20071;-72
2022/01/11 10:48:12;;;;;;;25.88;14.38;;;4.00;99.90;;;;;;5107782;27;20122;-74
2022/01/11 10:50:44;;;;;;;25.30;14.23;;;3.20;99.90;;;;;;5108192;27;20050;-71
2022/01/11 10:53:14;;;;;;;33.15;16.13;;;3.40;99.90;;;;;;5090780;27;20047;-72
2022/01/11 10:55:41;;;;;;;29.80;16.77;;;3.50;99.90;;;;;;5107519;27;20053;-74
2022/01/11 10:58:12;;;;;;;32.35;16.83;;;4.00;99.90;;;;;;5107662;27;20046;-72
2022/01/11 11:00:45;;;;;;;27.52;14.73;;;4.20;99.90;;;;;;5090623;27;20049;-71
2022/01/11 11:03:16;;;;;;;26.80;15.07;;;4.30;99.90;;;;;;5107380;27;20047;-72
2022/01/11 11:05:51;;;;;;;22.73;12.63;;;4.40;99.90;;;;;;5090440;27;20066;-70
2022/01/11 11:08:17;;;;;;;;;;;4.20;99.90;;;;;;5107624;27;20399;-72
2022/01/11 11:11:05;;;;;;;22.92;14.07;;;3.90;99.90;;;;;;5124767;27;19946;-72
2022/01/11 11:13:45;;;;;;;29.20;16.27;;;4.00;99.90;;;;;;5090633;27;20035;-71
2022/01/11 11:16:17;;;;;;;25.80;14.30;;;4.70;99.90;;;;;;5107496;27;20043;-72
2022/01/11 11:18:48;;;;;;;22.95;13.48;;;4.60;99.90;;;;;;5107574;27;20046;-72
2022/01/11 11:21:32;;;;;;;26.92;15.00;;;5.10;99.90;;;;;;5106857;27;20483;-73
2022/01/11 11:23:59;;;;;;;23.77;14.20;;;4.80;99.90;;;;;;5107096;27;20039;-72
2022/01/11 11:26:37;;;;;;;22.88;13.63;;;4.90;99.90;;;;;;5107245;27;20138;-72
2022/01/11 11:29:08;;;;;;;21.35;12.30;;;4.20;99.90;;;;;;5107666;27;20037;-71
2022/01/11 11:31:34;;;;;;;22.98;12.68;;;4.30;99.90;;;;;;5107423;27;20608;-73
2022/01/11 11:34:02;;;;;;;20.23;11.98;;;4.30;99.90;;;;;;5089613;27;20127;-73
2022/01/11 11:36:30;;;;;;;19.92;12.63;;;4.10;99.90;;;;;;5089994;27;20057;-72
2022/01/11 11:39:11;;;;;;;20.85;13.30;;;4.20;99.90;;;;;;5090315;27;20050;-73
2022/01/11 11:41:42;;;;;;;23.00;13.95;;;4.20;99.90;;;;;;5107093;27;20047;-72
2022/01/11 11:44:09;;;;;;;20.75;12.23;;;3.70;99.90;;;;;;5106159;27;20047;-72
2022/01/11 11:47:03;;;;;;;21.23;13.23;;;3.70;99.90;;;;;;5106585;27;20386;-73
2022/01/11 11:49:44;;;;;;;22.17;13.50;;;3.70;99.90;;;;;;5106634;27;20082;-75
2022/01/11 11:52:25;;;;;;;21.58;12.00;;;4.10;99.90;;;;;;5105752;27;20100;-71
2022/01/11 11:54:53;;;;;;;22.17;13.98;;;4.20;99.90;;;;;;5105458;27;20640;-71
2022/01/11 11:57:21;;;;;;;21.85;13.77;;;4.10;99.90;;;;;;5088162;27;20043;-72
2022/01/11 11:59:57;;;;;;;24.50;14.00;;;4.20;99.90;;;;;;5106609;27;20082;-72
2022/01/11 12:02:38;;;;;;;23.45;12.48;;;4.10;99.90;;;;;;5089659;27;20066;-72
2022/01/11 12:05:10;;;;;;;23.38;13.00;;;4.30;99.90;;;;;;5106692;27;20043;-68
2022/01/11 12:07:43;;;;;;;22.88;13.18;;;4.10;99.90;;;;;;5106240;27;20521;-70
2022/01/11 12:10:19;;;;;;;20.92;11.85;;;3.80;99.90;;;;;;5088603;27;20091;-69
2022/01/11 12:12:54;;;;;;;21.27;12.82;;;3.70;99.90;;;;;;5106436;27;20489;-72
2022/01/11 12:15:22;;;;;;;20.83;11.85;;;3.90;99.90;;;;;;5106561;27;20050;-72
2022/01/11 12:18:08;;;;;;;22.50;12.35;;;4.00;99.90;;;;;;5089140;28;20051;-70
2022/01/11 12:20:52;;;;;;;19.98;12.00;;;3.90;99.90;;;;;;5092174;27;20051;-70
2022/01/11 12:23:36;;;;;;;22.48;12.65;;;3.80;99.90;;;;;;5105711;27;20090;-68
2022/01/11 12:26:16;;;;;;;23.15;12.95;;;3.70;99.90;;;;;;5089616;27;20115;-69
2022/01/11 12:28:43;;;;;;;20.35;11.77;;;3.50;99.90;;;;;;5103393;27;20516;-71
2022/01/11 12:31:26;;;;;;;24.98;12.70;;;3.30;99.90;;;;;;5106251;27;20038;-72
2022/01/11 12:33:52;;;;;;;22.23;11.80;;;3.40;99.90;;;;;;5106106;27;20376;-72
2022/01/11 12:36:18;;;;;;;24.15;13.95;;;3.50;99.90;;;;;;5106106;27;20047;-72
2022/01/11 12:39:03;;;;;;;21.58;12.45;;;3.40;99.90;;;;;;5106119;28;20046;-73
2022/01/11 12:41:30;;;;;;;25.67;13.85;;;3.70;99.90;;;;;;5089223;28;20434;-71
2022/01/11 12:44:34;;;;;;;21.35;12.13;;;3.40;99.90;;;;;;5105752;28;20055;-72